createdAt,value
2022-10-25T00:02:24.291Z,98302.25
2022-10-25T00:04:51.607Z,98300.41
2022-10-25T00:07:18.528Z,98296.09
2022-10-25T00:09:45.375Z,98293.56
2022-10-25T00:12:12.243Z,98296.72
2022-10-25T00:14:39.117Z,98288.66
2022-10-25T00:17:05.968Z,98294.69
2022-10-25T00:19:33.227Z,98285.53
2022-10-25T00:22:00.109Z,98288.63
2022-10-25T00:24:27.040Z,98288.94
2022-10-25T00:26:53.963Z,98285.66
2022-10-25T00:29:20.900Z,98276.47
2022-10-25T00:31:48.131Z,98278.88
2022-10-25T00:34:15.099Z,98275.44
2022-10-25T00:36:41.982Z,98268.91
2022-10-25T00:39:08.920Z,98278.69
2022-10-25T00:41:35.998Z,98275.56
2022-10-25T00:44:37.042Z,98275.38
2022-10-25T00:47:18.415Z,98262.69
2022-10-25T00:49:47.361Z,98264.00
2022-10-25T00:52:14.330Z,98262.84
2022-10-25T00:54:49.090Z,98260.69
2022-10-25T00:57:28.127Z,98272.59
2022-10-25T00:59:55.285Z,98270.59
2022-10-25T01:02:22.981Z,98262.81
2022-10-25T01:04:50.972Z,98262.81
2022-10-25T01:07:17.835Z,98260.28
2022-10-25T01:09:45.186Z,98260.56
2022-10-25T01:12:12.171Z,98261.00
2022-10-25T01:14:44.458Z,98258.66
2022-10-25T01:17:20.532Z,98245.09
2022-10-25T01:20:08.734Z,98249.44
2022-10-25T01:22:41.875Z,98252.41
2022-10-25T01:25:11.726Z,98247.03
2022-10-25T01:27:51.976Z,98237.97
2022-10-25T01:30:25.092Z,98250.78
2022-10-25T01:33:16.586Z,98251.28
2022-10-25T01:35:54.124Z,98251.38
2022-10-25T01:38:50.483Z,98249.38
2022-10-25T01:41:25.023Z,98258.34
2022-10-25T01:44:20.953Z,98242.25
2022-10-25T01:46:57.007Z,98248.72
2022-10-25T01:49:58.137Z,98246.69
2022-10-25T01:52:25.688Z,98252.31
2022-10-25T01:54:52.869Z,98249.34
2022-10-25T01:57:58.733Z,98253.44
2022-10-25T02:00:26.519Z,98243.91
2022-10-25T02:02:59.065Z,98248.53
2022-10-25T02:06:03.258Z,98243.91
2022-10-25T02:08:57.836Z,98239.84
2022-10-25T02:11:30.394Z,98241.25
2022-10-25T02:14:10.718Z,98234.66
2022-10-25T02:16:50.806Z,98243.56
2022-10-25T02:19:21.294Z,98233.63
2022-10-25T02:21:50.313Z,98236.28
2022-10-25T02:24:21.874Z,98230.31
2022-10-25T02:26:50.941Z,98230.31
2022-10-25T02:29:19.938Z,98226.81
2022-10-25T02:31:47.230Z,98224.28
2022-10-25T02:34:14.393Z,98223.47
2022-10-25T02:36:41.253Z,98231.41
2022-10-25T02:39:08.762Z,98225.34
2022-10-25T02:41:35.911Z,98225.34
2022-10-25T02:44:02.766Z,98219.38
2022-10-25T02:46:29.742Z,98217.41
2022-10-25T02:48:56.584Z,98222.75
2022-10-25T02:51:23.617Z,98224.91
2022-10-25T02:53:50.622Z,98229.81
2022-10-25T02:56:20.003Z,98228.94
2022-10-25T02:58:48.386Z,98224.09
2022-10-25T03:01:17.438Z,98223.69
2022-10-25T03:03:45.300Z,98229.91
2022-10-25T03:06:12.958Z,98236.91
2022-10-25T03:08:41.243Z,98233.44
2022-10-25T03:11:10.365Z,98236.75
2022-10-25T03:13:37.785Z,98234.09
2022-10-25T03:16:04.948Z,98232.63
2022-10-25T03:18:31.874Z,98234.47
2022-10-25T03:21:00.889Z,98236.09
2022-10-25T03:23:28.811Z,98226.34
2022-10-25T03:25:58.123Z,98220.19
2022-10-25T03:28:27.551Z,98219.66
2022-10-25T03:30:56.132Z,98220.28
2022-10-25T03:33:23.385Z,98206.88
2022-10-25T03:35:51.947Z,98208.34
2022-10-25T03:38:18.968Z,98211.28
2022-10-25T03:40:46.330Z,98207.50
2022-10-25T03:43:13.289Z,98202.31
2022-10-25T03:45:40.252Z,98195.50
2022-10-25T03:48:07.458Z,98199.16
2022-10-25T03:50:36.186Z,98199.16
2022-10-25T03:53:04.642Z,98192.03
2022-10-25T03:55:32.088Z,98190.84
2022-10-25T03:57:59.190Z,98194.03
2022-10-25T04:00:26.981Z,98192.38
2022-10-25T04:03:01.866Z,98189.84
2022-10-25T04:05:30.730Z,98188.06
2022-10-25T04:07:57.971Z,98194.47
2022-10-25T04:10:25.757Z,98183.84
2022-10-25T04:12:54.491Z,98184.84
2022-10-25T04:15:22.895Z,98189.03
2022-10-25T04:17:53.624Z,98187.13
2022-10-25T04:20:21.146Z,98185.56
2022-10-25T04:22:58.244Z,98182.28
2022-10-25T04:25:26.975Z,98181.44
2022-10-25T04:27:54.041Z,98178.13
2022-10-25T04:30:20.959Z,98180.44
2022-10-25T04:32:48.122Z,98168.13
2022-10-25T04:35:15.275Z,98178.09
2022-10-25T04:37:42.393Z,98179.94
2022-10-25T04:40:10.157Z,98177.22
2022-10-25T04:42:37.051Z,98166.44
2022-10-25T04:45:04.273Z,98167.09
2022-10-25T04:47:32.712Z,98170.78
2022-10-25T04:50:00.311Z,98170.47
2022-10-25T04:52:29.562Z,98171.63
2022-10-25T04:54:56.880Z,98169.78
2022-10-25T04:57:24.079Z,98175.66
2022-10-25T04:59:51.063Z,98173.25
2022-10-25T05:02:17.944Z,98180.28
2022-10-25T05:04:44.838Z,98173.34
2022-10-25T05:07:11.702Z,98179.66
2022-10-25T05:09:40.078Z,98176.53
2022-10-25T05:12:08.437Z,98183.09
2022-10-25T05:14:35.331Z,98176.81
2022-10-25T05:17:02.191Z,98178.41
2022-10-25T05:19:29.122Z,98186.31
2022-10-25T05:21:56.158Z,98186.06
2022-10-25T05:24:23.119Z,98184.72
2022-10-25T05:26:49.959Z,98188.13
2022-10-25T05:29:16.899Z,98188.88
2022-10-25T05:31:43.815Z,98195.31
2022-10-25T05:34:10.968Z,98191.59
2022-10-25T05:36:38.282Z,98205.25
2022-10-25T05:39:05.313Z,98204.78
2022-10-25T05:41:36.048Z,98202.78
2022-10-25T05:44:05.398Z,98208.09
2022-10-25T05:46:32.427Z,98214.31
2022-10-25T05:49:00.072Z,98209.91
2022-10-25T05:51:37.294Z,98213.09
2022-10-25T05:54:13.030Z,98227.25
2022-10-25T05:56:41.069Z,98221.19
2022-10-25T05:59:13.305Z,98220.63
2022-10-25T06:01:42.806Z,98225.66
2022-10-25T06:04:10.325Z,98222.94
2022-10-25T06:06:39.153Z,98218.47
2022-10-25T06:09:07.338Z,98220.47
2022-10-25T06:11:35.739Z,98220.56
2022-10-25T06:14:03.260Z,98218.16
2022-10-25T06:16:30.317Z,98224.97
2022-10-25T06:18:57.533Z,98222.31
2022-10-25T06:21:27.007Z,98221.47
2022-10-25T06:23:54.366Z,98227.09
2022-10-25T06:26:27.297Z,98229.06
2022-10-25T06:28:56.434Z,98218.38
2022-10-25T06:31:23.708Z,98214.69
2022-10-25T06:33:51.035Z,98214.13
2022-10-25T06:36:20.348Z,98214.69
2022-10-25T06:38:48.350Z,98215.50
2022-10-25T06:41:17.981Z,98215.31
2022-10-25T06:43:44.998Z,98215.22
2022-10-25T06:46:21.739Z,98214.16
2022-10-25T06:48:49.344Z,98212.97
2022-10-25T06:51:16.310Z,98210.97
2022-10-25T06:53:43.171Z,98214.78
2022-10-25T06:56:14.716Z,98208.59
2022-10-25T06:58:42.468Z,98211.94
2022-10-25T07:01:17.439Z,98214.75
2022-10-25T07:03:46.193Z,98212.53
2022-10-25T07:06:18.885Z,98207.06
2022-10-25T07:08:47.313Z,98213.09
2022-10-25T07:11:17.250Z,98205.03
2022-10-25T07:13:44.623Z,98203.53
2022-10-25T07:16:16.420Z,98194.72
2022-10-25T07:18:43.877Z,98202.88
2022-10-25T07:21:13.275Z,98198.88
2022-10-25T07:23:43.941Z,98196.81
2022-10-25T07:26:16.684Z,98196.06
2022-10-25T07:28:46.167Z,98198.34
2022-10-25T07:31:25.126Z,98201.81
2022-10-25T07:33:53.821Z,98203.97
2022-10-25T07:36:21.152Z,98198.03
2022-10-25T07:38:48.045Z,98201.75
2022-10-25T07:41:15.069Z,98187.44
2022-10-25T07:43:42.263Z,98195.88
2022-10-25T07:46:09.528Z,98201.81
2022-10-25T07:48:36.665Z,98200.00
2022-10-25T07:51:11.595Z,98195.66
2022-10-25T07:53:39.131Z,98193.63
2022-10-25T07:56:06.641Z,98197.34
2022-10-25T07:58:33.865Z,98190.97
2022-10-25T08:01:06.424Z,98191.78
2022-10-25T08:03:34.021Z,98182.31
2022-10-25T08:06:01.457Z,98186.00
2022-10-25T08:08:29.560Z,98188.28
2022-10-25T08:10:57.295Z,98183.31
2022-10-25T08:13:24.258Z,98179.81
2022-10-25T08:15:56.316Z,98177.38
2022-10-25T08:18:24.090Z,98175.31
2022-10-25T08:21:06.478Z,98178.56
2022-10-25T08:23:34.036Z,98170.91
2022-10-25T08:26:02.234Z,98171.25
2022-10-25T08:28:31.490Z,98163.63
2022-10-25T08:31:01.187Z,98167.28
2022-10-25T08:33:29.210Z,98162.34
2022-10-25T08:35:56.170Z,98162.16
2022-10-25T08:38:23.037Z,98153.97
2022-10-25T08:41:10.362Z,98155.81
2022-10-25T08:44:01.248Z,98150.63
2022-10-25T08:46:35.135Z,98155.38
2022-10-25T08:49:14.031Z,98158.97
2022-10-25T08:51:45.454Z,98149.81
2022-10-25T08:54:22.557Z,98151.97
2022-10-25T08:57:10.910Z,98150.84
2022-10-25T08:59:45.735Z,98149.94
2022-10-25T09:02:35.978Z,98154.50
2022-10-25T09:05:03.883Z,98151.47
2022-10-25T09:07:44.707Z,98152.88
2022-10-25T09:10:43.802Z,98155.88
2022-10-25T09:13:30.920Z,98151.50
2022-10-25T09:16:05.945Z,98148.72
2022-10-25T09:18:55.085Z,98140.91
2022-10-25T09:21:39.929Z,98132.06
2022-10-25T09:24:21.870Z,98131.97
2022-10-25T09:27:08.948Z,98126.06
2022-10-25T09:29:55.460Z,98123.44
2022-10-25T09:32:32.110Z,98117.09
2022-10-25T09:35:01.621Z,98123.03
2022-10-25T09:37:36.048Z,98122.22
2022-10-25T09:40:22.293Z,98114.44
2022-10-25T09:42:49.081Z,98115.22
2022-10-25T10:16:50.208Z,98091.09
2022-10-25T10:19:20.058Z,98088.97
2022-10-25T10:22:08.790Z,98082.22
2022-10-25T10:24:41.268Z,98073.84
2022-10-25T10:27:13.980Z,98074.78
2022-10-25T10:29:59.943Z,98066.66
2022-10-25T10:32:31.981Z,98064.44
2022-10-25T10:34:59.715Z,98062.44
2022-10-25T10:37:28.963Z,98057.41
2022-10-25T10:40:02.908Z,98056.25
2022-10-25T10:42:35.655Z,98050.28
2022-10-25T10:45:08.726Z,98052.75
2022-10-25T10:47:41.979Z,98046.56
2022-10-25T10:50:20.589Z,98048.94
2022-10-25T10:53:09.407Z,98050.78
2022-10-25T10:55:46.855Z,98042.59
2022-10-25T10:58:17.820Z,98044.09
2022-10-25T11:01:12.791Z,98040.88
2022-10-25T11:03:49.212Z,98039.63
2022-10-25T11:06:32.145Z,98041.41
2022-10-25T11:09:17.993Z,98034.94
2022-10-25T11:12:04.385Z,98034.50
2022-10-25T11:14:31.485Z,98033.59
2022-10-25T11:17:26.360Z,98034.22
2022-10-25T11:20:25.144Z,98023.75
2022-10-25T11:23:06.920Z,98025.19
2022-10-25T11:25:58.360Z,98016.66
2022-10-25T11:28:47.934Z,98010.72
2022-10-25T11:31:33.195Z,98010.19
2022-10-25T11:34:24.657Z,98018.19
2022-10-25T11:37:00.420Z,98012.13
2022-10-25T11:39:51.576Z,98013.78
2022-10-25T11:42:58.763Z,98010.84
2022-10-25T11:45:28.865Z,98015.38
2022-10-25T11:48:09.900Z,98021.47
2022-10-25T11:50:49.390Z,98012.63
2022-10-25T11:53:25.112Z,98018.94
2022-10-25T11:56:04.811Z,98017.38
2022-10-25T11:58:40.699Z,98009.56
2022-10-25T12:01:16.681Z,98013.53
2022-10-25T12:03:46.293Z,98005.28
2022-10-25T12:06:24.481Z,98013.00
2022-10-25T12:09:26.623Z,98008.41
2022-10-25T12:12:03.363Z,98004.88
2022-10-25T12:14:38.287Z,98006.47
2022-10-25T12:17:13.065Z,98003.31
2022-10-25T12:19:46.641Z,97997.59
2022-10-25T12:22:34.705Z,98000.88
2022-10-25T12:25:23.849Z,97991.22
2022-10-25T12:28:21.342Z,97992.00
2022-10-25T12:30:50.800Z,97993.59
2022-10-25T12:33:39.610Z,97988.38
2022-10-25T12:36:15.758Z,97986.75
2022-10-25T12:38:42.940Z,97991.50
2022-10-25T12:41:23.658Z,97987.53
2022-10-25T12:43:56.595Z,97995.63
2022-10-25T12:46:46.818Z,97988.44
2022-10-25T12:49:41.396Z,97981.16
2022-10-25T12:52:32.734Z,97987.28
2022-10-25T12:55:41.039Z,97984.84
2022-10-25T12:58:16.928Z,97983.78
2022-10-25T13:00:56.710Z,97982.75
2022-10-25T13:03:45.229Z,97986.00
2022-10-25T13:06:24.179Z,97979.22
2022-10-25T13:08:51.559Z,97974.78
2022-10-25T13:11:18.576Z,97981.22
2022-10-25T13:13:56.013Z,97981.78
2022-10-25T13:16:34.348Z,97978.28
2022-10-25T13:19:30.579Z,97981.03
2022-10-25T13:22:14.097Z,97978.91
2022-10-25T13:24:43.745Z,97980.66
2022-10-25T13:27:13.536Z,97986.44
2022-10-25T13:30:02.791Z,97976.34
2022-10-25T13:32:32.651Z,97979.81
2022-10-25T13:34:59.838Z,97971.50
2022-10-25T13:37:32.647Z,97975.19
2022-10-25T13:40:03.937Z,97972.13
2022-10-25T13:42:37.812Z,97970.00
2022-10-25T13:45:04.599Z,97975.75
2022-10-25T13:47:41.582Z,97963.34
2022-10-25T13:50:18.007Z,97968.63
2022-10-25T13:53:00.190Z,97965.28
2022-10-25T13:55:34.854Z,97968.22
2022-10-25T13:58:01.868Z,97960.84
2022-10-25T14:00:39.108Z,97966.06
2022-10-25T14:03:08.662Z,97960.13
2022-10-25T14:05:54.063Z,97962.53
2022-10-25T14:08:38.837Z,97961.56
2022-10-25T14:11:14.766Z,97960.00
2022-10-25T14:13:58.216Z,97961.00
2022-10-25T14:16:30.270Z,97960.00
2022-10-25T14:19:03.347Z,97950.31
2022-10-25T14:21:30.400Z,97952.69
2022-10-25T14:23:58.381Z,97955.22
2022-10-25T14:26:25.407Z,97947.56
2022-10-25T14:28:52.398Z,97952.53
2022-10-25T14:31:21.799Z,97948.91
2022-10-25T14:33:56.541Z,97953.97
2022-10-25T14:36:36.759Z,97951.38
2022-10-25T14:39:25.665Z,97952.59
2022-10-25T14:41:57.863Z,97953.97
2022-10-25T14:44:30.152Z,97952.44
2022-10-25T14:46:59.366Z,97954.75
2022-10-25T14:49:27.548Z,97959.22
2022-10-25T14:51:59.817Z,97960.84
2022-10-25T14:54:37.611Z,97964.00
2022-10-25T14:57:09.730Z,97966.91
2022-10-25T14:59:48.406Z,97969.47
2022-10-25T15:02:20.956Z,97968.75
2022-10-25T15:04:50.362Z,97971.25
2022-10-25T15:07:41.689Z,97966.31
2022-10-25T15:10:35.425Z,97970.16
2022-10-25T15:13:12.689Z,97967.91
2022-10-25T15:15:44.973Z,97964.34
2022-10-25T15:18:27.174Z,97969.66
2022-10-25T15:21:16.452Z,97966.00
2022-10-25T15:24:04.469Z,97965.78
2022-10-25T15:26:34.676Z,97965.75
2022-10-25T15:29:05.116Z,97964.22
2022-10-25T15:31:33.012Z,97975.31
2022-10-25T15:34:05.582Z,97972.03
2022-10-25T15:36:34.170Z,97976.34
2022-10-25T15:39:10.484Z,97975.13
2022-10-25T15:41:41.167Z,97968.97
2022-10-25T15:44:08.160Z,97972.81
2022-10-25T15:46:35.412Z,97965.00
2022-10-25T15:49:06.866Z,97969.72
2022-10-25T15:51:36.265Z,97965.59
2022-10-25T15:54:03.361Z,97969.69
2022-10-25T15:56:30.267Z,97966.84
2022-10-25T15:58:58.792Z,97974.03
2022-10-25T16:01:25.910Z,97977.28
2022-10-25T16:03:52.906Z,97980.19
2022-10-25T16:06:19.838Z,97985.16
2022-10-25T16:08:46.701Z,97985.38
2022-10-25T16:11:17.628Z,97980.03
2022-10-25T16:13:48.978Z,97979.81
2022-10-25T16:16:40.221Z,97987.47
2022-10-25T16:19:16.670Z,97986.19
2022-10-25T16:21:44.023Z,97986.00
2022-10-25T16:24:12.149Z,97983.53
2022-10-25T16:26:42.960Z,97983.13
2022-10-25T16:29:28.057Z,97981.50
2022-10-25T16:31:54.983Z,97984.81
2022-10-25T16:34:22.106Z,97982.34
2022-10-25T16:36:50.623Z,97982.78
2022-10-25T16:39:17.745Z,97988.34
2022-10-25T16:41:46.285Z,97989.34
2022-10-25T16:44:15.717Z,97985.03
2022-10-25T16:46:43.287Z,97988.53
2022-10-25T16:49:10.492Z,97986.25
2022-10-25T16:51:38.648Z,97980.13
2022-10-25T16:54:06.182Z,97979.47
2022-10-25T16:56:33.115Z,97977.03
2022-10-25T16:59:00.823Z,97978.47
2022-10-25T17:01:34.556Z,97985.63
2022-10-25T17:04:04.261Z,97985.63
2022-10-25T17:06:46.769Z,97980.50
2022-10-25T17:09:13.830Z,97981.31
2022-10-25T17:11:41.129Z,97978.25
2022-10-25T17:14:09.899Z,97985.03
2022-10-25T17:16:39.609Z,97984.41
2022-10-25T17:19:06.592Z,97978.25
2022-10-25T17:21:35.897Z,97983.34
2022-10-25T17:24:04.730Z,97984.28
2022-10-25T17:26:31.755Z,97986.19
2022-10-25T17:29:00.971Z,97979.38
2022-10-25T17:31:32.730Z,97981.66
2022-10-25T17:34:01.085Z,97976.16
2022-10-25T17:36:32.528Z,97979.41
2022-10-25T17:39:02.513Z,97971.25
2022-10-25T17:41:29.570Z,97979.16
2022-10-25T17:43:57.049Z,97968.75
2022-10-25T17:46:29.767Z,97969.22
2022-10-25T17:49:03.414Z,97963.91
2022-10-25T17:51:32.009Z,97959.63
2022-10-25T17:53:59.048Z,97955.13
2022-10-25T17:56:27.306Z,97954.16
2022-10-25T17:58:55.643Z,97948.25
2022-10-25T18:01:26.679Z,97955.00
2022-10-25T18:03:54.953Z,97955.66
2022-10-25T18:06:24.127Z,97962.78
2022-10-25T18:08:56.285Z,97955.13
2022-10-25T18:11:24.958Z,97956.09
2022-10-25T18:13:59.946Z,97949.44
2022-10-25T18:16:31.047Z,97954.56
2022-10-25T18:19:01.503Z,97958.03
2022-10-25T18:21:29.339Z,97962.56
2022-10-25T18:23:58.616Z,97958.50
2022-10-25T18:26:26.865Z,97959.25
2022-10-25T18:28:53.925Z,97961.69
2022-10-25T18:31:21.181Z,97954.63
2022-10-25T18:33:48.325Z,97959.13
2022-10-25T18:36:19.438Z,97959.75
2022-10-25T18:38:47.436Z,97955.66
2022-10-25T18:41:26.051Z,97955.44
2022-10-25T18:43:54.961Z,97952.97
2022-10-25T18:46:22.309Z,97949.25
2022-10-25T18:48:52.884Z,97950.03
2022-10-25T18:51:22.170Z,97943.53
2022-10-25T18:53:53.261Z,97952.41
2022-10-25T18:56:22.062Z,97946.72
2022-10-25T18:58:49.754Z,97948.63
2022-10-25T19:01:20.938Z,97939.56
2022-10-25T19:03:48.163Z,97946.88
2022-10-25T19:06:15.192Z,97941.56
2022-10-25T19:08:43.093Z,97942.41
2022-10-25T19:11:12.454Z,97944.50
2022-10-25T19:13:40.496Z,97949.03
2022-10-25T19:16:09.413Z,97942.72
2022-10-25T19:18:37.830Z,97947.41
2022-10-25T19:21:10.101Z,97949.88
2022-10-25T19:23:37.399Z,97948.66
2022-10-25T19:26:10.130Z,97939.00
2022-10-25T19:28:37.196Z,97944.09
2022-10-25T19:31:09.556Z,97942.25
2022-10-25T19:33:36.734Z,97951.50
2022-10-25T19:36:09.059Z,97947.41
2022-10-25T19:38:36.899Z,97946.00
2022-10-25T19:41:06.256Z,97943.38
2022-10-25T19:43:33.894Z,97943.56
2022-10-25T19:46:04.881Z,97949.09
2022-10-25T19:48:32.669Z,97946.19
2022-10-25T19:51:15.370Z,97951.16
2022-10-25T19:53:42.730Z,97949.50
2022-10-25T19:56:16.093Z,97944.59
2022-10-25T19:58:43.183Z,97950.56
2022-10-25T20:01:16.096Z,97948.91
2022-10-25T20:03:44.974Z,97951.16
2022-10-25T20:06:20.225Z,97945.81
2022-10-25T20:08:50.519Z,97958.13
2022-10-25T20:11:18.462Z,97953.44
2022-10-25T20:13:45.777Z,97957.34
2022-10-25T20:16:14.183Z,97959.16
2022-10-25T20:18:42.663Z,97959.38
2022-10-25T20:21:11.514Z,97965.09
2022-10-25T20:23:39.704Z,97970.41
2022-10-25T20:26:12.185Z,97967.97
2022-10-25T20:28:39.196Z,97971.00
2022-10-25T20:31:06.084Z,97974.09
2022-10-25T20:33:33.218Z,97969.81
2022-10-25T20:36:05.720Z,97968.75
2022-10-25T20:38:32.774Z,97957.09
2022-10-25T20:41:11.582Z,97956.25
2022-10-25T20:43:39.778Z,97963.00
2022-10-25T20:46:08.189Z,97965.66
2022-10-25T20:48:35.354Z,97966.47
2022-10-25T20:51:05.334Z,97975.47
2022-10-25T20:53:35.472Z,97982.34
2022-10-25T20:56:02.468Z,97975.97
2022-10-25T20:58:29.321Z,97974.53
2022-10-25T21:00:57.650Z,97978.00
2022-10-25T21:03:26.623Z,97973.50
2022-10-25T21:05:54.832Z,97977.19
2022-10-25T21:08:23.120Z,97974.63
2022-10-25T21:11:16.449Z,97969.56
2022-10-25T21:13:43.299Z,97968.84
2022-10-25T21:16:12.286Z,97972.94
2022-10-25T21:18:39.519Z,97973.78
2022-10-25T21:21:09.066Z,97982.84
2022-10-25T21:23:36.070Z,97976.25
2022-10-25T21:26:07.761Z,97985.06
2022-10-25T21:28:37.012Z,97977.28
2022-10-25T21:31:06.277Z,97978.91
2022-10-25T21:33:33.486Z,97984.28
2022-10-25T21:36:08.954Z,97988.81
2022-10-25T21:38:36.279Z,97979.63
2022-10-25T21:41:15.010Z,97981.47
2022-10-25T21:43:51.040Z,97987.81
2022-10-25T21:46:19.894Z,97978.78
2022-10-25T21:48:48.073Z,97984.72
2022-10-25T21:51:15.281Z,97979.53
2022-10-25T21:53:42.569Z,97987.75
2022-10-25T21:56:11.108Z,97988.06
2022-10-25T21:58:39.422Z,97996.69
2022-10-25T22:01:17.728Z,97992.69
2022-10-25T22:03:44.679Z,97987.84
2022-10-25T22:06:13.778Z,97986.28
2022-10-25T22:08:41.085Z,97982.06
2022-10-25T22:11:12.428Z,97979.41
2022-10-25T22:13:39.590Z,97989.06
2022-10-25T22:16:12.482Z,97988.75
2022-10-25T22:18:39.863Z,97982.81
2022-10-25T22:21:11.945Z,97985.22
2022-10-25T22:23:39.481Z,97996.91
2022-10-25T22:26:09.440Z,97990.09
2022-10-25T22:28:40.728Z,97997.72
2022-10-25T22:31:16.950Z,97995.66
2022-10-25T22:33:44.804Z,98006.31
2022-10-25T22:36:14.633Z,98010.47
2022-10-25T22:38:41.836Z,98001.03
2022-10-25T22:41:20.382Z,98000.22
2022-10-25T22:43:48.708Z,98010.00
2022-10-25T22:46:29.931Z,98010.13
2022-10-25T22:48:58.489Z,98011.16
2022-10-25T22:51:27.728Z,98013.44
2022-10-25T22:53:55.285Z,98022.94
2022-10-25T22:56:27.420Z,98021.19
2022-10-25T22:58:56.939Z,98027.53
2022-10-25T23:01:29.396Z,98032.09
2022-10-25T23:03:58.055Z,98023.25
2022-10-25T23:06:29.897Z,98043.25
2022-10-25T23:08:58.700Z,98038.75
2022-10-25T23:11:31.458Z,98037.47
2022-10-25T23:13:58.678Z,98043.50
2022-10-25T23:16:26.596Z,98045.50
2022-10-25T23:18:54.037Z,98050.34
2022-10-25T23:21:23.511Z,98050.91
2022-10-25T23:23:52.212Z,98056.50
2022-10-25T23:26:22.475Z,98065.03
2022-10-25T23:28:50.136Z,98057.63
2022-10-25T23:31:17.797Z,98069.22
2022-10-25T23:33:45.453Z,98080.78
2022-10-25T23:36:15.667Z,98083.88
2022-10-25T23:38:43.592Z,98078.28
2022-10-25T23:41:10.892Z,98077.34
2022-10-25T23:43:38.163Z,98079.56
2022-10-25T23:46:06.201Z,98084.38
2022-10-25T23:48:33.475Z,98086.38
2022-10-25T23:51:03.117Z,98085.06
2022-10-25T23:53:30.470Z,98086.91
2022-10-25T23:55:57.889Z,98083.19
2022-10-25T23:58:25.108Z,98088.66
